Time;durP1;ratioP1;P1;durP2;ratioP2;P2;SDS_P1;SDS_P2;PMS_P1;PMS_P2;Temp;Humidity;BMP_temperature;BMP_pressure;BME280_temperature;BME280_humidity;BME280_pressure;Samples;Min_cycle;Max_cycle;Signal;HPM_P1;HPM_P2
2022/08/18 00:00:50;;;;;;;5.75;3.47;;;;;;;;;;5110908;28;20020;-71
2022/08/18 00:03:47;;;;;;;7.78;3.47;;;;;;;;;;5111824;27;20800;-72
2022/08/18 00:06:28;;;;;;;5.90;3.55;;;;;;;;;;5112198;27;20727;-71
2022/08/18 00:08:54;;;;;;;5.03;2.92;;;;;;;;;;5111189;28;20115;-72
2022/08/18 00:11:35;;;;;;;6.70;3.65;;;;;;;;;;5112356;27;20423;-71
2022/08/18 00:14:01;;;;;;;6.97;3.40;;;;;;;;;;5111089;28;20062;-71
2022/08/18 00:16:27;;;;;;;4.57;2.70;;;;;;;;;;5110153;28;20020;-72
2022/08/18 00:19:08;;;;;;;7.97;3.38;;;;;;;;;;5132263;27;20108;-71
2022/08/18 00:22:25;;;;;;;6.10;3.50;;;;;;;;;;5152436;27;20136;-71
2022/08/18 00:24:52;;;;;;;8.25;3.80;;;;;;;;;;5153234;27;20061;-71
2022/08/18 00:27:27;;;;;;;5.88;3.38;;;;;;;;;;5152765;27;20360;-71
2022/08/18 00:34:13;;;;;;;9.18;3.28;;;;;;;;;;5113016;27;20393;-71
2022/08/18 00:36:39;;;;;;;6.75;3.42;;;;;;;;;;5114770;28;20083;-71
2022/08/18 00:39:20;;;;;;;5.82;3.00;;;;;;;;;;5117578;27;20400;-71
2022/08/18 00:41:46;;;;;;;5.78;3.33;;;;;;;;;;5111807;28;20028;-71
2022/08/18 00:44:48;;;;;;;6.72;3.63;;;;;;;;;;5112213;27;20397;-72
2022/08/18 00:47:14;;;;;;;5.43;2.88;;;;;;;;;;5111845;28;20110;-72
2022/08/18 00:49:42;;;;;;;5.57;3.40;;;;;;;;;;5109827;28;20026;-71
2022/08/18 00:52:09;;;;;;;6.43;3.25;;;;;;;;;;5109965;28;20061;-71
2022/08/18 00:54:36;;;;;;;6.28;3.75;;;;;;;;;;5111389;28;20468;-72
2022/08/18 00:57:05;;;;;;;6.70;3.90;;;;;;;;;;5110736;28;20107;-72
2022/08/18 00:59:43;;;;;;;11.95;4.43;;;;;;;;;;5111420;28;20039;-72
2022/08/18 01:02:12;;;;;;;5.63;3.33;;;;;;;;;;5111462;28;20035;-72
2022/08/18 01:04:53;;;;;;;7.97;3.90;;;;;;;;;;5110566;28;20051;-72
2022/08/18 01:07:28;;;;;;;10.30;3.58;;;;;;;;;;5109774;28;20028;-72
2022/08/18 01:10:27;;;;;;;7.75;3.78;;;;;;;;;;5111261;27;20442;-71
2022/08/18 01:12:54;;;;;;;6.05;3.45;;;;;;;;;;5111354;28;20028;-71
2022/08/18 01:15:20;;;;;;;8.50;4.20;;;;;;;;;;5110060;28;20028;-71
2022/08/18 01:28:08;;;;;;;6.72;3.63;;;;;;;;;;5111421;28;20105;-71
2022/08/18 01:30:45;;;;;;;7.60;4.05;;;;;;;;;;5111697;28;20029;-70
2022/08/18 01:33:11;;;;;;;12.27;4.30;;;;;;;;;;5110906;28;20495;-70
2022/08/18 01:35:39;;;;;;;8.80;4.20;;;;;;;;;;5111255;28;20016;-71
2022/08/18 01:39:19;;;;;;;8.15;4.00;;;;;;;;;;5111439;27;20384;-71
2022/08/18 01:41:45;;;;;;;10.55;5.35;;;;;;;;;;5111430;28;20019;-72
2022/08/18 01:45:20;;;;;;;10.20;4.32;;;;;;;;;;5111002;27;20393;-71
2022/08/18 01:47:49;;;;;;;8.15;3.97;;;;;;;;;;5111404;28;20468;-71
2022/08/18 01:53:59;;;;;;;7.18;4.10;;;;;;;;;;5111077;27;20876;-70
2022/08/18 01:56:26;;;;;;;10.43;4.53;;;;;;;;;;5111397;28;20058;-70
2022/08/18 01:58:53;;;;;;;8.18;4.18;;;;;;;;;;5111329;28;20027;-71
2022/08/18 02:01:19;;;;;;;9.30;4.90;;;;;;;;;;5110888;28;20073;-71
2022/08/18 02:03:59;;;;;;;9.60;4.82;;;;;;;;;;5111748;27;20393;-71
2022/08/18 02:09:37;;;;;;;9.60;4.97;;;;;;;;;;5111954;27;20842;-71
2022/08/18 02:13:52;;;;;;;11.57;5.55;;;;;;;;;;5111079;27;20960;-70
2022/08/18 02:20:35;;;;;;;20.83;9.77;;;;;;;;;;5071055;28;20858;-70
2022/08/18 02:23:01;;;;;;;23.63;11.77;;;;;;;;;;5070762;28;20024;-70
2022/08/18 02:25:27;;;;;;;22.75;10.95;;;;;;;;;;5071185;28;20028;-70
2022/08/18 02:27:53;;;;;;;26.45;11.25;;;;;;;;;;5070321;28;20025;-70
2022/08/18 02:30:19;;;;;;;16.52;8.98;;;;;;;;;;5070610;28;20135;-70
2022/08/18 02:33:49;;;;;;;10.05;5.20;;;;;;;;;;5071331;28;20399;-70
2022/08/18 02:38:06;;;;;;;9.00;4.63;;;;;;;;;;5111373;27;20805;-71
2022/08/18 02:42:39;;;;;;;7.85;4.40;;;;;;;;;;5070694;28;20407;-70
2022/08/18 02:47:02;;;;;;;13.88;7.05;;;;;;;;;;5111521;27;20401;-70
2022/08/18 02:49:28;;;;;;;42.97;19.75;;;;;;;;;;5110965;28;20092;-71
2022/08/18 02:51:54;;;;;;;40.22;19.90;;;;;;;;;;5110074;28;20434;-71
2022/08/18 02:54:24;;;;;;;46.08;22.75;;;;;;;;;;5111780;28;20468;-72
2022/08/18 02:59:36;;;;;;;49.05;23.58;;;;;;;;;;5112242;27;20438;-71
2022/08/18 03:02:02;;;;;;;39.50;19.75;;;;;;;;;;5111398;28;20031;-72
2022/08/18 03:04:29;;;;;;;38.83;18.65;;;;;;;;;;5111004;28;20027;-72
2022/08/18 03:08:27;;;;;;;34.55;17.17;;;;;;;;;;5111341;27;20462;-71
2022/08/18 03:11:12;;;;;;;34.30;16.55;;;;;;;;;;5111031;27;21082;-70
2022/08/18 03:13:38;;;;;;;34.53;15.75;;;;;;;;;;5111554;28;20023;-71
2022/08/18 03:16:04;;;;;;;43.08;18.50;;;;;;;;;;5111411;28;20551;-70
2022/08/18 03:18:30;;;;;;;42.90;19.02;;;;;;;;;;5110863;28;20098;-70
2022/08/18 03:23:16;;;;;;;29.85;14.30;;;;;;;;;;5111368;27;20796;-70
2022/08/18 03:25:47;;;;;;;29.98;12.55;;;;;;;;;;5110995;28;20062;-71
2022/08/18 03:28:13;;;;;;;22.77;11.00;;;;;;;;;;5111582;28;20022;-70
2022/08/18 03:30:39;;;;;;;23.30;12.82;;;;;;;;;;5110915;28;20071;-70
2022/08/18 03:33:05;;;;;;;34.72;16.10;;;;;;;;;;5109985;28;20023;-70
2022/08/18 03:35:34;;;;;;;32.97;15.38;;;;;;;;;;5111164;28;20054;-71
2022/08/18 03:38:59;;;;;;;34.55;17.15;;;;;;;;;;5111243;27;20426;-71
2022/08/18 03:41:27;;;;;;;34.10;16.50;;;;;;;;;;5111340;28;20110;-71
2022/08/18 03:45:30;;;;;;;32.33;15.60;;;;;;;;;;5111523;27;20461;-71
2022/08/18 03:47:56;;;;;;;29.88;15.75;;;;;;;;;;5111396;28;20028;-71
2022/08/18 03:54:07;;;;;;;26.58;12.60;;;;;;;;;;5071362;28;20419;-71
2022/08/18 03:56:37;;;;;;;27.73;13.98;;;;;;;;;;5069525;28;20029;-71
2022/08/18 03:59:16;;;;;;;27.17;13.65;;;;;;;;;;5070444;28;20048;-71
2022/08/18 04:01:43;;;;;;;21.83;10.15;;;;;;;;;;5069454;28;20432;-71
2022/08/18 04:06:18;;;;;;;12.70;7.30;;;;;;;;;;5111060;27;20116;-71
2022/08/18 04:10:08;;;;;;;13.05;7.47;;;;;;;;;;5111830;27;20393;-71
2022/08/18 04:15:43;;;;;;;14.05;7.57;;;;;;;;;;5111956;27;20922;-71
2022/08/18 04:18:10;;;;;;;10.80;6.35;;;;;;;;;;5111380;28;20028;-71
2022/08/18 04:21:57;;;;;;;11.10;6.32;;;;;;;;;;5110990;27;20392;-71
2022/08/18 04:24:24;;;;;;;9.80;5.85;;;;;;;;;;5111299;28;20024;-71
2022/08/18 04:30:38;;;;;;;9.50;4.97;;;;;;;;;;5111755;27;20929;-71
2022/08/18 04:34:31;;;;;;;28.77;15.38;;;;;;;;;;5111331;27;20896;-71
2022/08/18 04:38:03;;;;;;;34.33;15.20;;;;;;;;;;5111455;27;20389;-71
2022/08/18 04:45:12;;;;;;;32.00;16.25;;;;;;;;;;5112101;27;20419;-71
2022/08/18 04:48:22;;;;;;;35.17;16.35;;;;;;;;;;5152869;27;20390;-71
2022/08/18 04:56:05;;;;;;;26.83;13.77;;;;;;;;;;5111131;28;20173;-72
2022/08/18 05:00:21;;;;;;;27.13;12.52;;;;;;;;;;5112017;27;20884;-71
2022/08/18 05:02:48;;;;;;;26.02;13.23;;;;;;;;;;5110852;28;20032;-71
2022/08/18 05:11:43;;;;;;;11.82;5.72;;;;;;;;;;5111748;27;20876;-69
2022/08/18 05:15:41;;;;;;;13.68;6.82;;;;;;;;;;5103646;27;20384;-71
2022/08/18 05:18:07;;;;;;;10.27;5.97;;;;;;;;;;5069096;28;20115;-71
2022/08/18 05:20:33;;;;;;;13.25;6.07;;;;;;;;;;5069600;28;20096;-70
2022/08/18 05:23:00;;;;;;;9.70;5.03;;;;;;;;;;5070830;28;20491;-71
2022/08/18 05:25:27;;;;;;;9.85;4.22;;;;;;;;;;5068049;28;20430;-71
2022/08/18 05:29:22;;;;;;;8.45;4.40;;;;;;;;;;5096932;27;20485;-73
2022/08/18 05:35:24;;;;;;;7.70;4.32;;;;;;;;;;5111897;27;20384;-73
2022/08/18 05:39:19;;;;;;;7.65;4.50;;;;;;;;;;5102396;27;20410;-73
2022/08/18 05:41:45;;;;;;;9.25;4.15;;;;;;;;;;5098572;28;20021;-73
2022/08/18 05:44:17;;;;;;;10.43;4.50;;;;;;;;;;5088608;28;20017;-72
2022/08/18 05:46:48;;;;;;;9.60;4.40;;;;;;;;;;5108293;28;20157;-71
2022/08/18 05:51:16;;;;;;;8.23;4.57;;;;;;;;;;5111067;27;20454;-71
2022/08/18 05:58:00;;;;;;;8.10;4.25;;;;;;;;;;5101855;27;1527814;-72
2022/08/18 06:00:28;;;;;;;7.95;4.30;;;;;;;;;;5130080;28;20467;-72
2022/08/18 06:03:26;;;;;;;6.45;3.50;;;;;;;;;;5131744;28;20100;-72
2022/08/18 06:08:13;;;;;;;6.25;3.50;;;;;;;;;;5128100;27;20399;-70
2022/08/18 06:10:42;;;;;;;6.22;3.42;;;;;;;;;;5131282;28;20475;-71
2022/08/18 06:13:09;;;;;;;8.38;3.53;;;;;;;;;;5127479;28;20027;-71
2022/08/18 06:15:35;;;;;;;11.27;3.90;;;;;;;;;;5129357;28;20046;-70
2022/08/18 06:20:09;;;;;;;6.95;3.35;;;;;;;;;;5096639;28;20321;-72
2022/08/18 06:22:35;;;;;;;6.95;3.75;;;;;;;;;;5085040;28;20032;-71
2022/08/18 06:25:06;;;;;;;7.00;3.63;;;;;;;;;;5090380;28;20032;-70
2022/08/18 06:29:49;;;;;;;7.80;3.45;;;;;;;;;;5108061;27;20409;-71
2022/08/18 06:34:20;;;;;;;5.82;3.50;;;;;;;;;;5109305;27;20412;-71
2022/08/18 06:36:55;;;;;;;6.32;3.97;;;;;;;;;;5108118;28;20472;-71
2022/08/18 06:42:29;;;;;;;7.68;3.75;;;;;;;;;;5078257;28;20032;-70
2022/08/18 06:45:00;;;;;;;6.57;3.55;;;;;;;;;;5088132;28;20025;-71
2022/08/18 06:47:41;;;;;;;5.35;3.38;;;;;;;;;;5088560;28;20101;-72
2022/08/18 06:50:28;;;;;;;9.68;4.13;;;;;;;;;;5088199;28;20036;-73
2022/08/18 06:52:56;;;;;;;9.15;4.30;;;;;;;;;;5087956;28;20085;-73
2022/08/18 06:55:40;;;;;;;9.73;3.92;;;;;;;;;;5085721;28;20027;-73
2022/08/18 06:58:12;;;;;;;7.10;4.00;;;;;;;;;;5088493;28;20020;-73
2022/08/18 07:01:38;;;;;;;7.20;4.07;;;;;;;;;;5110830;27;20798;-72
2022/08/18 07:04:04;;;;;;;8.77;3.88;;;;;;;;;;5101073;28;20366;-71
2022/08/18 07:06:31;;;;;;;7.50;3.70;;;;;;;;;;5089515;28;20020;-72
2022/08/18 07:09:15;;;;;;;6.15;3.50;;;;;;;;;;5093349;28;20056;-72
2022/08/18 07:11:56;;;;;;;7.78;3.47;;;;;;;;;;5100982;28;20031;-73
2022/08/18 07:14:24;;;;;;;6.20;3.28;;;;;;;;;;5103293;28;20016;-72
2022/08/18 07:18:02;;;;;;;6.32;3.55;;;;;;;;;;5110453;27;20393;-72
2022/08/18 07:20:29;;;;;;;7.40;3.38;;;;;;;;;;5106816;28;20126;-71
2022/08/18 07:24:58;;;;;;;11.63;3.70;;;;;;;;;;5087351;27;20802;-71
2022/08/18 07:27:45;;;;;;;8.23;3.55;;;;;;;;;;5086785;28;20085;-72
2022/08/18 07:30:20;;;;;;;6.95;3.90;;;;;;;;;;5088076;28;20554;-72
2022/08/18 07:34:02;;;;;;;11.98;4.25;;;;;;;;;;5110654;27;20954;-71
2022/08/18 07:36:32;;;;;;;5.47;3.33;;;;;;;;;;5100269;28;20483;-72
2022/08/18 07:39:02;;;;;;;5.78;3.13;;;;;;;;;;5099444;28;20032;-71
2022/08/18 07:41:48;;;;;;;6.15;3.20;;;;;;;;;;5102613;27;20417;-70
2022/08/18 07:44:28;;;;;;;6.22;3.00;;;;;;;;;;5089836;28;20054;-74
2022/08/18 07:47:20;;;;;;;5.00;3.08;;;;;;;;;;5088574;28;20028;-73
2022/08/18 07:49:47;;;;;;;7.45;3.30;;;;;;;;;;5086225;28;20048;-73
2022/08/18 07:52:20;;;;;;;5.68;2.75;;;;;;;;;;5086030;28;20177;-75
2022/08/18 07:54:56;;;;;;;7.50;3.42;;;;;;;;;;5083177;28;20037;-76
2022/08/18 07:57:28;;;;;;;6.50;3.35;;;;;;;;;;5088104;28;20107;-76
2022/08/18 07:59:54;;;;;;;9.43;3.53;;;;;;;;;;5087959;28;20028;-77
2022/08/18 08:04:32;;;;;;;6.68;3.10;;;;;;;;;;5109646;27;20388;-76
2022/08/18 08:08:05;;;;;;;7.97;3.85;;;;;;;;;;5109926;27;20804;-74
2022/08/18 08:10:48;;;;;;;5.80;3.47;;;;;;;;;;5103709;28;20024;-76
2022/08/18 08:13:15;;;;;;;6.78;3.60;;;;;;;;;;5107482;28;20026;-77
2022/08/18 08:15:48;;;;;;;8.18;3.88;;;;;;;;;;5108356;28;20028;-77
2022/08/18 08:18:33;;;;;;;6.38;3.60;;;;;;;;;;5109622;28;20071;-77
2022/08/18 08:21:19;;;;;;;7.00;3.90;;;;;;;;;;5108086;28;20106;-73
2022/08/18 08:24:37;;;;;;;9.20;4.22;;;;;;;;;;5099412;27;20881;-73
2022/08/18 08:28:20;;;;;;;12.73;6.90;;;;;;;;;;5109733;27;20393;-72
2022/08/18 08:30:54;;;;;;;9.98;6.07;;;;;;;;;;5108786;28;20442;-74
2022/08/18 08:33:39;;;;;;;8.98;4.70;;;;;;;;;;5108087;28;20020;-74
2022/08/18 08:36:11;;;;;;;5.50;3.53;;;;;;;;;;5108653;28;20152;-74
2022/08/18 08:38:37;;;;;;;;;;;;;;;;;;5109546;28;20027;-74
2022/08/18 08:41:07;;;;;;;7.18;3.70;;;;;;;;;;5107546;28;19904;-74
2022/08/18 08:43:45;;;;;;;6.55;3.78;;;;;;;;;;5107741;28;20024;-74
2022/08/18 08:46:15;;;;;;;13.13;4.63;;;;;;;;;;5108325;28;20048;-74
2022/08/18 08:48:43;;;;;;;7.22;3.83;;;;;;;;;;5108191;28;20097;-74
2022/08/18 08:51:21;;;;;;;9.95;4.35;;;;;;;;;;5108521;28;20057;-74
2022/08/18 08:53:52;;;;;;;9.85;4.30;;;;;;;;;;5107142;28;20059;-74
2022/08/18 08:56:20;;;;;;;6.13;3.28;;;;;;;;;;5109414;28;20483;-73
2022/08/18 08:58:52;;;;;;;5.75;3.60;;;;;;;;;;5110366;28;20460;-74
2022/08/18 09:01:24;;;;;;;7.28;3.38;;;;;;;;;;5109475;28;20134;-73
2022/08/18 09:04:14;;;;;;;7.80;4.45;;;;;;;;;;5101286;28;20031;-73
2022/08/18 09:06:51;;;;;;;8.27;3.97;;;;;;;;;;5105316;28;20118;-73
2022/08/18 09:09:29;;;;;;;9.65;4.22;;;;;;;;;;5106945;28;20570;-73
2022/08/18 09:12:14;;;;;;;5.90;3.50;;;;;;;;;;5111301;28;20036;-74
2022/08/18 09:14:55;;;;;;;8.48;3.90;;;;;;;;;;5102761;28;20024;-74
2022/08/18 09:18:00;;;;;;;5.05;3.47;;;;;;;;;;5089305;28;20020;-74
2022/08/18 09:20:36;;;;;;;7.93;3.78;;;;;;;;;;5047173;28;20477;-74
2022/08/18 09:23:10;;;;;;;8.13;3.30;;;;;;;;;;5046377;28;20509;-73
2022/08/18 09:25:40;;;;;;;4.53;3.17;;;;;;;;;;5083451;28;20072;-75
2022/08/18 09:28:21;;;;;;;6.13;3.20;;;;;;;;;;5100442;28;20028;-74
2022/08/18 09:31:05;;;;;;;6.18;3.33;;;;;;;;;;5097932;28;20492;-74
2022/08/18 09:33:32;;;;;;;7.43;3.80;;;;;;;;;;5098552;28;20028;-75
2022/08/18 09:36:05;;;;;;;6.57;3.42;;;;;;;;;;5104287;28;20024;-75
2022/08/18 09:41:32;;;;;;;7.63;3.63;;;;;;;;;;5082751;28;20495;-76
2022/08/18 09:44:10;;;;;;;5.20;3.05;;;;;;;;;;5074188;28;20017;-74
2022/08/18 09:46:42;;;;;;;8.23;3.38;;;;;;;;;;5090670;28;20075;-74
2022/08/18 09:49:24;;;;;;;7.82;3.15;;;;;;;;;;5088644;28;20024;-70
2022/08/18 09:51:51;;;;;;;5.65;3.47;;;;;;;;;;5093596;28;20056;-74
2022/08/18 09:54:19;;;;;;;5.80;3.03;;;;;;;;;;5092638;28;20024;-74
2022/08/18 09:56:52;;;;;;;4.25;2.55;;;;;;;;;;5094464;28;20103;-73
2022/08/18 09:59:35;;;;;;;4.90;3.03;;;;;;;;;;5095503;28;20023;-75
2022/08/18 10:02:02;;;;;;;;;;;;;;;;;;5093923;28;20460;-72
2022/08/18 10:04:35;;;;;;;5.28;2.83;;;;;;;;;;5086307;28;19940;-74
2022/08/18 10:07:20;;;;;;;5.97;2.88;;;;;;;;;;5075496;28;20033;-72
2022/08/18 10:10:06;;;;;;;4.35;2.67;;;;;;;;;;5081751;28;20377;-74
2022/08/18 10:12:50;;;;;;;3.83;2.40;;;;;;;;;;5087545;28;20498;-74
2022/08/18 10:15:41;;;;;;;4.50;2.50;;;;;;;;;;5075346;28;20048;-74
2022/08/18 10:18:30;;;;;;;5.30;3.03;;;;;;;;;;5082752;28;20423;-75
2022/08/18 10:21:08;;;;;;;4.45;2.78;;;;;;;;;;5094255;28;20020;-76
2022/08/18 10:23:53;;;;;;;6.30;2.75;;;;;;;;;;5095167;28;20390;-72
2022/08/18 10:26:36;;;;;;;4.30;2.47;;;;;;;;;;5084438;28;20052;-74
2022/08/18 10:29:05;;;;;;;3.85;2.40;;;;;;;;;;5087559;28;20026;-74
2022/08/18 10:31:52;;;;;;;4.50;2.47;;;;;;;;;;5089983;28;20391;-74
2022/08/18 10:34:41;;;;;;;6.15;2.83;;;;;;;;;;5093000;28;20384;-72
2022/08/18 10:37:13;;;;;;;6.78;2.70;;;;;;;;;;5077810;28;20044;-72
2022/08/18 10:39:39;;;;;;;5.00;2.63;;;;;;;;;;5093046;28;20483;-72
2022/08/18 10:42:24;;;;;;;6.90;3.35;;;;;;;;;;5093223;28;20460;-71
2022/08/18 10:44:51;;;;;;;3.63;2.10;;;;;;;;;;5094067;28;20048;-72
2022/08/18 10:47:28;;;;;;;3.83;2.28;;;;;;;;;;5093095;28;20033;-72
2022/08/18 10:49:54;;;;;;;5.18;2.55;;;;;;;;;;5093399;28;20028;-71
2022/08/18 10:52:20;;;;;;;4.28;2.25;;;;;;;;;;5094135;28;20020;-71
2022/08/18 10:54:49;;;;;;;5.32;2.28;;;;;;;;;;5093140;28;20525;-71
2022/08/18 10:57:38;;;;;;;3.80;1.85;;;;;;;;;;5093442;28;20024;-73
2022/08/18 11:00:11;;;;;;;3.65;1.95;;;;;;;;;;5092778;28;20141;-71
2022/08/18 11:02:51;;;;;;;5.13;2.42;;;;;;;;;;5092704;28;20078;-73
2022/08/18 11:05:19;;;;;;;4.30;2.50;;;;;;;;;;5093478;28;20500;-71
2022/08/18 11:07:47;;;;;;;4.28;2.45;;;;;;;;;;5092877;28;20043;-71
2022/08/18 11:10:34;;;;;;;3.92;1.95;;;;;;;;;;5093332;28;20024;-71
2022/08/18 11:13:20;;;;;;;4.85;2.45;;;;;;;;;;5093305;28;20472;-72
2022/08/18 11:16:05;;;;;;;3.90;2.10;;;;;;;;;;5094125;28;20044;-72
2022/08/18 11:18:36;;;;;;;4.80;2.55;;;;;;;;;;5094685;28;20465;-72
2022/08/18 11:21:21;;;;;;;5.47;3.00;;;;;;;;;;5094494;28;20398;-72
2022/08/18 11:24:06;;;;;;;5.50;2.30;;;;;;;;;;5094142;28;20027;-72
2022/08/18 11:26:33;;;;;;;4.55;2.08;;;;;;;;;;5094150;28;20504;-72
2022/08/18 11:29:18;;;;;;;4.07;2.30;;;;;;;;;;5094103;28;20066;-72
2022/08/18 11:31:45;;;;;;;3.25;2.28;;;;;;;;;;5094166;28;20024;-72
2022/08/18 11:34:14;;;;;;;6.03;2.20;;;;;;;;;;5094674;28;20024;-72
2022/08/18 11:36:40;;;;;;;4.05;2.38;;;;;;;;;;5093621;28;20035;-72
2022/08/18 11:39:10;;;;;;;3.78;2.10;;;;;;;;;;5092799;28;20052;-72
2022/08/18 11:41:37;;;;;;;4.13;2.10;;;;;;;;;;5094202;28;20027;-72
2022/08/18 11:44:06;;;;;;;3.97;1.85;;;;;;;;;;5093663;28;20031;-72
2022/08/18 11:46:39;;;;;;;3.53;2.10;;;;;;;;;;5094272;28;20027;-72
2022/08/18 11:49:19;;;;;;;4.03;2.40;;;;;;;;;;5094567;28;20020;-72
2022/08/18 11:51:59;;;;;;;2.88;1.75;;;;;;;;;;5093551;28;20021;-72
2022/08/18 11:54:33;;;;;;;4.95;2.05;;;;;;;;;;5094663;28;20035;-72
2022/08/18 11:57:18;;;;;;;3.60;2.10;;;;;;;;;;5093607;28;20020;-72
2022/08/18 11:59:44;;;;;;;3.03;2.03;;;;;;;;;;5093899;28;20020;-72
2022/08/18 12:02:15;;;;;;;4.95;1.92;;;;;;;;;;5093662;28;20020;-72
2022/08/18 12:04:42;;;;;;;2.83;1.60;;;;;;;;;;5093536;28;20098;-73
2022/08/18 12:07:10;;;;;;;5.82;1.85;;;;;;;;;;5092381;28;20051;-72
2022/08/18 12:09:45;;;;;;;4.10;1.80;;;;;;;;;;5093740;28;20020;-72
2022/08/18 12:12:25;;;;;;;3.70;1.88;;;;;;;;;;5093143;28;20024;-73
2022/08/18 12:14:54;;;;;;;3.33;2.00;;;;;;;;;;5093744;28;20024;-73
2022/08/18 12:17:20;;;;;;;3.83;1.90;;;;;;;;;;5094029;28;20380;-72
2022/08/18 12:19:47;;;;;;;3.40;1.50;;;;;;;;;;5093277;28;20035;-72
2022/08/18 12:22:16;;;;;;;4.82;2.20;;;;;;;;;;5093823;28;20031;-72
2022/08/18 12:24:42;;;;;;;3.20;1.70;;;;;;;;;;5093569;28;20024;-72
2022/08/18 12:27:09;;;;;;;3.30;1.80;;;;;;;;;;5092885;28;20105;-71
2022/08/18 12:29:35;;;;;;;4.35;2.22;;;;;;;;;;5092232;28;20036;-73
2022/08/18 12:32:01;;;;;;;7.00;2.40;;;;;;;;;;5093489;28;20016;-73
2022/08/18 12:34:27;;;;;;;3.30;1.95;;;;;;;;;;5093293;28;20024;-73
2022/08/18 12:36:55;;;;;;;3.70;2.08;;;;;;;;;;5093360;28;20029;-73
2022/08/18 12:39:21;;;;;;;2.10;1.70;;;;;;;;;;5093221;28;20028;-72
2022/08/18 12:41:47;;;;;;;3.00;1.90;;;;;;;;;;5093413;28;20024;-72
2022/08/18 12:44:14;;;;;;;3.38;2.00;;;;;;;;;;5093695;28;20085;-72
2022/08/18 12:46:41;;;;;;;5.20;2.30;;;;;;;;;;5092820;28;20553;-72
2022/08/18 12:49:10;;;;;;;2.42;1.58;;;;;;;;;;5093641;28;20357;-71
2022/08/18 12:51:36;;;;;;;5.68;1.95;;;;;;;;;;5093280;28;20493;-71
2022/08/18 12:54:02;;;;;;;3.85;1.83;;;;;;;;;;5092750;28;20480;-72
2022/08/18 12:56:30;;;;;;;3.58;2.28;;;;;;;;;;5093224;28;20027;-72
2022/08/18 12:58:58;;;;;;;5.78;2.15;;;;;;;;;;5093340;28;20052;-73
2022/08/18 13:01:24;;;;;;;3.78;1.83;;;;;;;;;;5093108;28;20028;-72
2022/08/18 13:03:52;;;;;;;6.82;2.20;;;;;;;;;;5091865;28;20615;-72
2022/08/18 13:06:19;;;;;;;4.72;1.95;;;;;;;;;;5093124;28;20024;-72
2022/08/18 13:08:45;;;;;;;6.57;2.17;;;;;;;;;;5091471;28;20035;-72
2022/08/18 13:11:11;;;;;;;5.18;2.10;;;;;;;;;;5093357;28;20035;-72
2022/08/18 13:13:39;;;;;;;4.07;2.13;;;;;;;;;;5094926;28;20048;-72
2022/08/18 13:16:09;;;;;;;2.63;1.42;;;;;;;;;;5096527;28;20077;-72
2022/08/18 13:18:36;;;;;;;3.20;1.70;;;;;;;;;;5097021;28;20061;-72
2022/08/18 13:21:03;;;;;;;4.00;1.75;;;;;;;;;;5096791;28;20035;-72
2022/08/18 13:23:30;;;;;;;3.75;1.88;;;;;;;;;;5096445;28;20021;-72
2022/08/18 13:25:58;;;;;;;2.53;1.48;;;;;;;;;;5096478;28;20032;-72
2022/08/18 13:28:25;;;;;;;2.65;1.58;;;;;;;;;;5096240;28;20024;-72
2022/08/18 13:30:52;;;;;;;2.65;1.38;;;;;;;;;;5096607;28;20469;-72
2022/08/18 13:33:19;;;;;;;3.05;1.60;;;;;;;;;;5096586;28;20020;-72
2022/08/18 13:35:46;;;;;;;3.33;1.30;;;;;;;;;;5096104;28;20385;-73
2022/08/18 13:38:13;;;;;;;3.90;2.15;;;;;;;;;;5096622;28;20028;-72
2022/08/18 13:40:39;;;;;;;1.95;1.48;;;;;;;;;;5096533;28;20055;-72
2022/08/18 13:43:07;;;;;;;3.85;1.75;;;;;;;;;;5096127;28;20028;-72
2022/08/18 13:45:33;;;;;;;3.65;1.70;;;;;;;;;;5096399;28;20027;-72
2022/08/18 13:47:59;;;;;;;3.60;1.40;;;;;;;;;;5096178;28;20032;-73
2022/08/18 13:50:26;;;;;;;3.72;1.60;;;;;;;;;;5095920;28;20379;-72
2022/08/18 13:52:52;;;;;;;4.13;1.90;;;;;;;;;;5096369;28;20024;-72
2022/08/18 13:55:20;;;;;;;3.83;1.70;;;;;;;;;;5096189;28;20020;-72
2022/08/18 13:57:49;;;;;;;2.78;1.65;;;;;;;;;;5095784;28;20099;-72
2022/08/18 14:00:19;;;;;;;4.13;2.08;;;;;;;;;;5096124;28;20095;-72
2022/08/18 14:02:57;;;;;;;3.33;1.63;;;;;;;;;;5094822;28;20122;-73
2022/08/18 14:05:23;;;;;;;3.28;1.70;;;;;;;;;;5095649;28;20073;-72
2022/08/18 14:07:49;;;;;;;3.45;1.92;;;;;;;;;;5096125;28;20131;-73
2022/08/18 14:10:16;;;;;;;3.63;1.90;;;;;;;;;;5095969;28;20024;-72
2022/08/18 14:12:42;;;;;;;3.03;1.88;;;;;;;;;;5095429;28;20032;-72
2022/08/18 14:15:10;;;;;;;5.53;2.13;;;;;;;;;;5094548;28;20479;-72
2022/08/18 14:17:37;;;;;;;3.10;1.85;;;;;;;;;;5095452;28;20460;-72
2022/08/18 14:28:27;;;;;;;2.83;1.70;;;;;;;;;;5095961;28;20035;-72
2022/08/18 14:30:53;;;;;;;3.83;2.10;;;;;;;;;;5094231;28;20365;-72
2022/08/18 14:33:21;;;;;;;4.38;2.10;;;;;;;;;;5095055;28;20111;-72
2022/08/18 14:35:47;;;;;;;5.97;2.67;;;;;;;;;;5095643;28;20025;-72
2022/08/18 14:38:16;;;;;;;4.10;1.73;;;;;;;;;;5095376;28;20476;-72
2022/08/18 14:40:44;;;;;;;3.55;1.88;;;;;;;;;;5095034;28;20032;-72
2022/08/18 14:43:14;;;;;;;4.57;2.10;;;;;;;;;;5095333;28;20388;-72
2022/08/18 14:45:46;;;;;;;5.53;2.28;;;;;;;;;;5093753;28;20100;-72
2022/08/18 14:48:13;;;;;;;4.63;2.08;;;;;;;;;;5095795;28;20032;-72
2022/08/18 14:50:41;;;;;;;4.38;2.33;;;;;;;;;;5093893;28;20044;-72
2022/08/18 14:53:07;;;;;;;5.05;1.75;;;;;;;;;;5094741;28;20353;-72
2022/08/18 14:55:34;;;;;;;5.07;2.30;;;;;;;;;;5095120;28;20035;-72
2022/08/18 14:58:00;;;;;;;5.80;1.98;;;;;;;;;;5093776;28;20415;-73
2022/08/18 15:00:27;;;;;;;5.05;2.28;;;;;;;;;;5094721;28;20102;-72
2022/08/18 15:02:53;;;;;;;3.75;1.90;;;;;;;;;;5094855;28;20024;-72
2022/08/18 15:05:19;;;;;;;5.03;2.20;;;;;;;;;;5095168;28;20341;-72
2022/08/18 15:07:46;;;;;;;2.90;1.80;;;;;;;;;;5094566;28;20329;-73
2022/08/18 15:10:13;;;;;;;3.90;2.30;;;;;;;;;;5094689;28;20099;-74
2022/08/18 15:12:40;;;;;;;5.85;2.60;;;;;;;;;;5094600;28;20111;-72
2022/08/18 15:15:11;;;;;;;2.55;1.80;;;;;;;;;;5094328;28;20066;-73
2022/08/18 15:17:38;;;;;;;6.63;2.85;;;;;;;;;;5095088;28;20376;-73
2022/08/18 15:20:08;;;;;;;3.70;1.88;;;;;;;;;;5094594;28;20032;-72
2022/08/18 15:25:43;;;;;;;4.25;2.58;;;;;;;;;;5094537;28;20071;-72
2022/08/18 15:28:11;;;;;;;4.32;2.30;;;;;;;;;;5094024;28;20032;-71
2022/08/18 15:30:37;;;;;;;4.15;2.10;;;;;;;;;;5094561;28;20020;-71
2022/08/18 15:33:04;;;;;;;3.47;2.33;;;;;;;;;;5094508;28;20035;-72
2022/08/18 15:35:31;;;;;;;4.07;2.13;;;;;;;;;;5093650;28;20022;-73
2022/08/18 15:37:57;;;;;;;3.83;2.22;;;;;;;;;;5094737;28;20054;-73
2022/08/18 15:40:25;;;;;;;4.07;2.13;;;;;;;;;;5094473;28;20020;-72
2022/08/18 15:42:56;;;;;;;5.45;2.55;;;;;;;;;;5093999;28;20039;-71
2022/08/18 15:45:24;;;;;;;5.50;2.20;;;;;;;;;;5092909;28;20059;-73
2022/08/18 15:47:51;;;;;;;3.85;2.28;;;;;;;;;;5094203;28;20122;-72
2022/08/18 15:50:18;;;;;;;5.32;2.28;;;;;;;;;;5094034;28;20091;-72
2022/08/18 15:52:57;;;;;;;4.18;2.10;;;;;;;;;;5094389;28;20028;-73
2022/08/18 15:55:24;;;;;;;3.58;1.83;;;;;;;;;;5094175;28;20016;-72
2022/08/18 15:57:51;;;;;;;4.18;2.17;;;;;;;;;;5093533;28;20036;-72
2022/08/18 16:00:19;;;;;;;4.18;2.00;;;;;;;;;;5094167;28;20384;-72
2022/08/18 16:02:49;;;;;;;4.78;1.83;;;;;;;;;;5093860;28;20550;-72
2022/08/18 16:05:16;;;;;;;2.70;1.70;;;;;;;;;;5093671;28;20024;-71
2022/08/18 16:07:44;;;;;;;5.13;1.73;;;;;;;;;;5093872;28;20032;-72
2022/08/18 16:10:11;;;;;;;4.13;2.00;;;;;;;;;;5093335;28;20024;-72
2022/08/18 16:12:38;;;;;;;5.15;2.08;;;;;;;;;;5092960;28;20557;-72
2022/08/18 16:15:04;;;;;;;3.60;1.77;;;;;;;;;;5093888;28;20028;-72
2022/08/18 16:17:31;;;;;;;5.55;2.70;;;;;;;;;;5093152;28;20031;-71
2022/08/18 16:19:58;;;;;;;3.75;2.30;;;;;;;;;;5093865;28;20032;-72
2022/08/18 16:22:24;;;;;;;3.08;1.60;;;;;;;;;;5093519;28;20020;-72
2022/08/18 16:24:51;;;;;;;3.15;1.60;;;;;;;;;;5091906;28;20039;-72
2022/08/18 16:27:17;;;;;;;7.53;3.30;;;;;;;;;;5093177;28;20052;-73
2022/08/18 16:29:43;;;;;;;9.73;3.50;;;;;;;;;;5092170;28;20491;-71
2022/08/18 16:32:09;;;;;;;3.55;2.10;;;;;;;;;;5093152;28;20102;-72
2022/08/18 16:34:35;;;;;;;5.05;2.28;;;;;;;;;;5093361;28;20016;-72
2022/08/18 16:37:01;;;;;;;4.10;2.00;;;;;;;;;;5093422;28;20024;-72
2022/08/18 16:39:27;;;;;;;4.55;2.03;;;;;;;;;;5091692;28;20050;-72
2022/08/18 16:41:54;;;;;;;3.75;2.13;;;;;;;;;;5092132;28;20424;-72
2022/08/18 16:44:20;;;;;;;5.30;2.42;;;;;;;;;;5093563;28;20120;-73
2022/08/18 16:46:46;;;;;;;5.07;3.17;;;;;;;;;;5093216;28;20054;-72
2022/08/18 16:49:13;;;;;;;3.08;2.10;;;;;;;;;;5096372;28;20028;-72
2022/08/18 16:51:40;;;;;;;6.65;2.13;;;;;;;;;;5097583;28;20073;-73
2022/08/18 16:54:06;;;;;;;6.18;2.95;;;;;;;;;;5096973;28;20448;-72
2022/08/18 16:56:35;;;;;;;4.78;2.17;;;;;;;;;;5096056;28;20423;-73
2022/08/18 17:04:34;;;;;;;6.25;2.55;;;;;;;;;;5097479;28;20059;-73
2022/08/18 17:07:01;;;;;;;5.03;2.47;;;;;;;;;;5096543;28;20060;-72
2022/08/18 17:09:27;;;;;;;5.28;2.50;;;;;;;;;;5096940;28;20025;-72
2022/08/18 17:11:54;;;;;;;12.88;3.60;;;;;;;;;;5097169;28;20032;-72
2022/08/18 17:14:21;;;;;;;5.93;3.08;;;;;;;;;;5096580;28;20062;-72
2022/08/18 17:16:48;;;;;;;9.55;4.07;;;;;;;;;;5096996;28;20121;-72
2022/08/18 17:19:14;;;;;;;7.95;3.30;;;;;;;;;;5096919;28;20441;-72
2022/08/18 17:21:41;;;;;;;8.82;2.90;;;;;;;;;;5096569;28;20381;-72